Time;durP1;ratioP1;P1;durP2;ratioP2;P2;SDS_P1;SDS_P2;PMS_P1;PMS_P2;Temp;Humidity;BMP_temperature;BMP_pressure;BME280_temperature;BME280_humidity;BME280_pressure;Samples;Min_cycle;Max_cycle;Signal;HPM_P1;HPM_P2
2020/12/19 00:00:58;;;;;;;36.70;19.95;;;6.30;99.90;;;;;;5011119;28;20307;-83
2020/12/19 00:03:23;;;;;;;39.90;19.52;;;6.20;99.90;;;;;;5011848;28;20101;-85
2020/12/19 00:05:49;;;;;;;35.13;19.15;;;6.10;99.90;;;;;;5012410;28;20097;-86
2020/12/19 00:08:15;;;;;;;38.97;19.08;;;6.10;99.90;;;;;;5009712;28;20044;-82
2020/12/19 00:10:40;;;;;;;40.30;19.48;;;6.10;99.90;;;;;;5001134;28;20021;-85
2020/12/19 00:13:06;;;;;;;37.55;18.20;;;5.90;99.90;;;;;;4993027;28;20129;-84
2020/12/19 00:15:32;;;;;;;36.15;19.35;;;6.00;99.90;;;;;;5010680;28;20502;-83
2020/12/19 00:17:58;;;;;;;40.50;19.67;;;6.00;99.90;;;;;;5010044;28;20046;-82
2020/12/19 00:20:24;;;;;;;39.70;20.50;;;6.00;99.90;;;;;;4993364;28;20026;-82
2020/12/19 00:22:50;;;;;;;37.38;19.15;;;6.00;99.90;;;;;;5010633;28;20041;-87
2020/12/19 00:25:16;;;;;;;38.53;19.48;;;6.10;99.90;;;;;;5016167;28;20018;-83
2020/12/19 00:27:43;;;;;;;38.47;18.58;;;6.10;99.90;;;;;;5017258;28;20500;-82
2020/12/19 00:30:09;;;;;;;37.42;20.25;;;6.10;99.90;;;;;;5015465;28;20037;-83
2020/12/19 00:32:41;;;;;;;39.08;20.85;;;6.00;99.90;;;;;;5015219;28;20018;-87
2020/12/19 00:35:09;;;;;;;43.28;20.27;;;6.00;99.90;;;;;;5015232;28;20460;-82
2020/12/19 00:37:42;;;;;;;38.58;19.55;;;6.00;99.90;;;;;;5014268;28;20033;-84
2020/12/19 00:40:09;;;;;;;39.75;20.55;;;6.00;99.90;;;;;;5012900;28;20097;-82
2020/12/19 00:42:36;;;;;;;42.08;19.40;;;6.00;99.90;;;;;;5014739;28;20017;-83
2020/12/19 00:45:04;;;;;;;42.25;20.20;;;6.00;99.90;;;;;;4996996;28;20129;-83
2020/12/19 00:47:29;;;;;;;38.58;19.52;;;6.00;99.90;;;;;;4997374;28;20025;-85
2020/12/19 00:49:55;;;;;;;45.58;20.35;;;6.00;99.90;;;;;;4997660;28;20056;-84
2020/12/19 00:52:21;;;;;;;45.10;22.35;;;6.00;99.90;;;;;;4998444;28;20561;-83
2020/12/19 00:54:47;;;;;;;38.28;20.23;;;6.10;99.90;;;;;;5014843;28;20546;-85
2020/12/19 00:57:12;;;;;;;44.08;21.20;;;6.00;99.90;;;;;;5014263;28;20026;-82
2020/12/19 00:59:38;;;;;;;45.45;21.58;;;6.00;99.90;;;;;;5014215;28;20029;-85
2020/12/19 01:02:04;;;;;;;41.75;19.92;;;6.00;99.90;;;;;;5014389;28;20466;-83
2020/12/19 01:04:30;;;;;;;43.30;21.60;;;6.00;99.90;;;;;;5014437;28;20026;-84
2020/12/19 01:06:55;;;;;;;44.30;20.52;;;5.90;99.90;;;;;;4996928;28;20387;-84
2020/12/19 01:09:22;;;;;;;37.88;20.23;;;5.80;99.90;;;;;;5006850;28;20027;-82
2020/12/19 01:11:49;;;;;;;37.78;20.02;;;5.90;99.90;;;;;;5000436;28;20709;-81
2020/12/19 01:14:15;;;;;;;45.33;21.15;;;5.90;99.90;;;;;;5021657;28;20014;-82
2020/12/19 01:16:40;;;;;;;39.15;19.73;;;5.90;99.90;;;;;;5019246;28;20160;-82
2020/12/19 01:19:06;;;;;;;42.95;21.35;;;5.80;99.90;;;;;;5015900;28;20702;-82
2020/12/19 01:21:33;;;;;;;42.80;20.92;;;5.90;99.90;;;;;;4998152;28;20033;-83
2020/12/19 01:23:59;;;;;;;56.40;25.88;;;5.80;99.90;;;;;;4996456;28;20026;-82
2020/12/19 01:26:25;;;;;;;91.80;41.30;;;6.10;99.90;;;;;;5013695;28;20079;-83
2020/12/19 01:28:51;;;;;;;131.50;60.88;;;6.30;99.90;;;;;;5013942;28;20026;-81
2020/12/19 01:31:19;;;;;;;58.35;28.27;;;6.40;99.90;;;;;;4997013;28;20363;-82
2020/12/19 01:33:45;;;;;;;50.53;24.13;;;6.20;99.90;;;;;;5012728;28;20045;-81
2020/12/19 01:36:13;;;;;;;45.10;21.63;;;6.00;99.90;;;;;;4995784;28;20381;-83
2020/12/19 01:38:39;;;;;;;47.22;21.02;;;5.90;99.90;;;;;;5012399;28;20057;-82
2020/12/19 01:41:05;;;;;;;42.72;20.92;;;5.80;99.90;;;;;;5012376;28;20050;-81
2020/12/19 01:43:47;;;;;;;46.22;21.20;;;5.80;99.90;;;;;;5012654;28;20477;-83
2020/12/19 01:46:26;;;;;;;41.47;19.23;;;5.40;99.90;;;;;;4995764;28;20417;-84
2020/12/19 01:48:52;;;;;;;44.90;21.35;;;4.90;99.90;;;;;;5013086;28;20065;-85
2020/12/19 01:51:18;;;;;;;40.00;21.20;;;4.70;99.90;;;;;;5012735;28;20029;-84
2020/12/19 01:53:43;;;;;;;44.58;19.40;;;4.60;99.90;;;;;;5012722;28;20026;-83
2020/12/19 01:56:10;;;;;;;42.47;19.80;;;4.60;99.90;;;;;;5012734;28;20018;-84
2020/12/19 01:58:36;;;;;;;40.08;19.75;;;4.50;99.90;;;;;;5011641;28;20527;-82
2020/12/19 02:01:03;;;;;;;44.40;19.00;;;4.50;99.90;;;;;;5012710;28;20072;-83
2020/12/19 02:03:29;;;;;;;39.60;19.70;;;4.70;99.90;;;;;;4994945;28;20512;-86
2020/12/19 02:05:55;;;;;;;38.45;20.23;;;4.60;99.90;;;;;;4995025;28;20058;-82
2020/12/19 02:08:21;;;;;;;39.85;20.15;;;4.40;99.90;;;;;;5012415;28;20030;-83
2020/12/19 02:10:50;;;;;;;37.72;19.80;;;4.30;99.90;;;;;;5012668;28;20394;-91
2020/12/19 02:13:15;;;;;;;36.78;19.00;;;4.20;99.90;;;;;;5012251;28;20065;-82
2020/12/19 02:15:43;;;;;;;39.10;19.30;;;4.20;99.90;;;;;;4995167;28;20178;-85
2020/12/19 02:18:09;;;;;;;45.17;18.23;;;4.30;99.90;;;;;;4994737;28;20093;-82
2020/12/19 02:20:35;;;;;;;43.17;19.13;;;4.20;99.90;;;;;;5012793;28;20022;-86
2020/12/19 02:23:03;;;;;;;42.45;18.38;;;4.40;99.90;;;;;;5012461;28;20033;-84
2020/12/19 02:25:36;;;;;;;42.65;18.75;;;4.30;99.90;;;;;;5012253;28;20092;-81
2020/12/19 02:28:07;;;;;;;39.80;18.92;;;4.20;99.90;;;;;;4997152;28;20033;-83
2020/12/19 02:30:33;;;;;;;;;;;4.30;99.90;;;;;;4995033;28;20482;-83
2020/12/19 02:32:59;;;;;;;45.72;19.73;;;4.30;99.90;;;;;;5012200;28;19917;-82
2020/12/19 02:35:31;;;;;;;46.30;20.65;;;4.40;99.90;;;;;;4987753;28;721862;-89
2020/12/19 02:38:00;;;;;;;43.00;19.02;;;4.50;99.90;;;;;;5012759;28;20116;-81
2020/12/19 02:40:26;;;;;;;40.10;19.05;;;4.40;99.90;;;;;;5012863;28;20360;-82
2020/12/19 02:42:52;;;;;;;39.83;19.23;;;4.60;99.90;;;;;;5012735;28;20033;-81
2020/12/19 02:45:18;;;;;;;39.30;17.33;;;4.70;99.90;;;;;;4994912;28;20034;-81
2020/12/19 02:47:43;;;;;;;42.78;19.25;;;4.60;99.90;;;;;;5011858;28;20490;-83
2020/12/19 02:50:10;;;;;;;39.17;19.30;;;4.40;99.90;;;;;;4994438;28;20437;-81
2020/12/19 02:52:36;;;;;;;46.70;19.00;;;4.60;99.90;;;;;;5012118;28;20048;-82
2020/12/19 02:55:01;;;;;;;45.22;20.63;;;4.60;99.90;;;;;;4994597;28;20405;-82
2020/12/19 02:57:27;;;;;;;45.47;19.02;;;4.40;99.90;;;;;;5012067;28;20509;-87
2020/12/19 02:59:53;;;;;;;46.40;19.90;;;4.40;99.90;;;;;;5012161;28;20029;-83
2020/12/19 03:02:19;;;;;;;42.55;19.55;;;4.40;99.90;;;;;;4994881;28;20655;-82
2020/12/19 03:04:44;;;;;;;47.05;20.17;;;4.30;99.90;;;;;;5012257;28;20117;-84
2020/12/19 03:07:10;;;;;;;51.15;19.15;;;4.30;99.90;;;;;;4994638;28;20397;-81
2020/12/19 03:09:36;;;;;;;50.50;20.80;;;4.40;99.90;;;;;;4994967;28;20375;-81
2020/12/19 03:12:03;;;;;;;45.53;19.70;;;4.50;99.90;;;;;;4994919;28;20049;-86
2020/12/19 03:14:29;;;;;;;41.85;19.83;;;4.50;99.90;;;;;;5012055;28;20037;-82
2020/12/19 03:16:55;;;;;;;43.30;19.13;;;4.60;99.90;;;;;;5012073;28;20029;-81
2020/12/19 03:19:21;;;;;;;41.53;18.38;;;4.70;99.90;;;;;;5010997;28;20065;-80
2020/12/19 03:21:46;;;;;;;38.67;18.55;;;4.50;99.90;;;;;;4994539;28;20053;-82
2020/12/19 03:24:12;;;;;;;44.90;18.23;;;4.60;99.90;;;;;;4994207;28;20110;-80
2020/12/19 03:26:38;;;;;;;44.67;19.65;;;4.70;99.90;;;;;;4994505;28;20026;-81
2020/12/19 03:29:04;;;;;;;41.92;19.50;;;4.80;99.90;;;;;;5012024;28;20032;-81
2020/12/19 03:31:29;;;;;;;46.13;19.20;;;5.00;99.90;;;;;;4994418;28;20034;-80
2020/12/19 03:33:55;;;;;;;42.45;20.88;;;5.10;99.90;;;;;;5012032;28;20429;-81
2020/12/19 03:36:21;;;;;;;40.90;19.25;;;5.00;99.90;;;;;;4994303;28;20454;-83
2020/12/19 03:38:47;;;;;;;38.20;17.60;;;5.10;99.90;;;;;;5010385;28;20038;-82
2020/12/19 03:41:15;;;;;;;44.60;18.58;;;5.20;99.90;;;;;;5011755;28;20033;-80
2020/12/19 03:43:41;;;;;;;39.28;18.67;;;5.20;99.90;;;;;;5011727;28;20370;-80
2020/12/19 03:46:07;;;;;;;46.00;20.42;;;5.20;99.90;;;;;;4993966;28;20509;-83
2020/12/19 03:48:33;;;;;;;37.83;17.92;;;5.00;99.90;;;;;;5011578;28;20018;-80
2020/12/19 03:50:59;;;;;;;40.25;18.30;;;4.20;99.90;;;;;;4994187;28;20034;-81
2020/12/19 03:53:25;;;;;;;45.15;18.90;;;4.10;99.90;;;;;;4994111;28;20025;-83
2020/12/19 03:55:50;;;;;;;44.80;18.45;;;4.20;99.90;;;;;;5010310;28;20033;-83
2020/12/19 03:58:16;;;;;;;37.08;17.55;;;4.20;99.90;;;;;;4995186;28;20092;-82
2020/12/19 04:00:42;;;;;;;46.78;17.80;;;4.10;99.90;;;;;;5015581;28;20022;-81
2020/12/19 04:03:08;;;;;;;51.45;19.50;;;4.00;99.90;;;;;;4997767;28;20030;-83
2020/12/19 04:05:33;;;;;;;47.35;19.05;;;3.90;99.90;;;;;;4997857;28;20030;-81
2020/12/19 04:07:59;;;;;;;46.72;19.73;;;4.00;99.90;;;;;;4997688;28;20528;-80
2020/12/19 04:10:25;;;;;;;43.15;18.20;;;3.90;99.90;;;;;;4997902;28;20030;-80
2020/12/19 04:12:50;;;;;;;52.97;19.95;;;3.90;99.90;;;;;;5014137;28;20037;-82
2020/12/19 04:15:23;;;;;;;43.75;19.20;;;3.90;99.90;;;;;;4997679;28;20049;-80
2020/12/19 04:17:53;;;;;;;46.17;18.33;;;3.90;99.90;;;;;;5014885;28;20370;-81
2020/12/19 04:20:19;;;;;;;49.60;18.90;;;4.10;99.90;;;;;;5015221;28;20104;-81
2020/12/19 04:22:45;;;;;;;43.80;19.65;;;4.20;99.90;;;;;;5015091;28;20105;-82
2020/12/19 04:25:11;;;;;;;50.47;18.88;;;4.10;99.90;;;;;;5014867;28;20022;-81
2020/12/19 04:27:39;;;;;;;45.63;18.60;;;4.20;99.90;;;;;;5014896;28;20064;-80
2020/12/19 04:30:08;;;;;;;53.00;18.80;;;4.30;99.90;;;;;;5014969;28;20022;-79
2020/12/19 04:32:34;;;;;;;44.28;18.73;;;4.00;99.90;;;;;;4997086;28;20030;-83
2020/12/19 04:35:00;;;;;;;44.33;19.17;;;3.90;99.90;;;;;;4997335;28;20074;-81
2020/12/19 04:37:25;;;;;;;44.95;18.98;;;4.00;99.90;;;;;;4997304;28;20069;-81
2020/12/19 04:39:55;;;;;;;50.08;19.95;;;3.90;99.90;;;;;;4997299;28;20076;-81
2020/12/19 04:42:22;;;;;;;44.70;18.83;;;4.00;99.90;;;;;;4997251;28;20034;-81
2020/12/19 04:44:48;;;;;;;52.03;19.15;;;3.90;99.90;;;;;;4997170;28;20029;-81
2020/12/19 04:47:14;;;;;;;50.53;18.88;;;3.80;99.90;;;;;;4996909;28;20022;-82
2020/12/19 04:49:43;;;;;;;41.03;17.88;;;4.00;99.90;;;;;;5015033;28;20030;-80
2020/12/19 04:52:09;;;;;;;46.67;18.25;;;4.20;99.90;;;;;;5014630;28;20029;-80
2020/12/19 04:54:39;;;;;;;44.50;19.08;;;4.20;99.90;;;;;;4997044;28;20388;-86
2020/12/19 04:57:05;;;;;;;49.45;19.45;;;3.90;99.90;;;;;;4997141;28;20032;-85
2020/12/19 04:59:31;;;;;;;42.85;18.65;;;4.00;99.90;;;;;;4996882;28;20050;-84
2020/12/19 05:01:59;;;;;;;47.35;18.25;;;3.90;99.90;;;;;;4996569;28;20062;-83
2020/12/19 05:04:24;;;;;;;45.08;18.60;;;3.90;99.90;;;;;;4996995;28;20029;-82
2020/12/19 05:06:50;;;;;;;39.80;19.20;;;4.00;99.90;;;;;;5014299;28;20057;-84
2020/12/19 05:09:16;;;;;;;41.50;18.75;;;4.10;99.90;;;;;;4995830;28;20057;-82
2020/12/19 05:11:43;;;;;;;40.75;17.67;;;4.20;99.90;;;;;;4996044;28;20022;-83
2020/12/19 05:14:09;;;;;;;42.85;17.92;;;4.30;99.90;;;;;;5013947;28;20022;-81
2020/12/19 05:16:35;;;;;;;42.50;17.42;;;4.20;99.90;;;;;;4996220;28;20025;-81
2020/12/19 05:19:11;;;;;;;41.85;17.85;;;4.50;99.90;;;;;;5014142;28;20441;-82
2020/12/19 05:21:47;;;;;;;44.28;18.38;;;4.60;99.90;;;;;;4996831;28;20413;-80
2020/12/19 05:24:17;;;;;;;45.47;17.15;;;4.60;99.90;;;;;;5013946;28;20022;-83
2020/12/19 05:26:44;;;;;;;41.97;16.63;;;4.30;99.90;;;;;;4996317;28;20390;-82
2020/12/19 05:29:11;;;;;;;39.17;17.42;;;4.10;99.90;;;;;;5013987;28;20064;-82
2020/12/19 05:31:37;;;;;;;40.30;17.85;;;4.30;99.90;;;;;;5013411;28;20042;-80
2020/12/19 05:34:04;;;;;;;41.20;17.40;;;4.50;99.90;;;;;;5007425;28;20054;-83
2020/12/19 05:36:29;;;;;;;37.63;18.10;;;4.70;99.90;;;;;;4994522;28;20030;-83
2020/12/19 05:39:01;;;;;;;41.80;17.98;;;4.90;99.90;;;;;;4995960;28;20034;-85
2020/12/19 05:41:27;;;;;;;47.47;18.50;;;5.00;99.90;;;;;;4996059;28;20030;-80
2020/12/19 05:43:54;;;;;;;43.03;19.55;;;5.00;99.90;;;;;;4995681;28;20025;-81
2020/12/19 05:46:46;;;;;;;45.13;20.08;;;5.20;99.90;;;;;;5013130;28;20048;-82
2020/12/19 05:49:12;;;;;;;39.45;18.17;;;5.20;99.90;;;;;;4992564;28;20042;-84
2020/12/19 05:51:41;;;;;;;45.40;19.58;;;5.30;99.90;;;;;;5013398;28;20112;-83
2020/12/19 05:54:09;;;;;;;50.80;20.70;;;5.30;99.90;;;;;;4995637;28;20061;-85
2020/12/19 05:56:43;;;;;;;43.63;19.65;;;5.30;99.90;;;;;;5013119;28;20445;-82
2020/12/19 05:59:15;;;;;;;37.88;17.10;;;5.40;99.90;;;;;;5013183;28;20038;-81
2020/12/19 06:01:43;;;;;;;36.17;16.60;;;5.10;99.90;;;;;;4995695;28;20029;-82
2020/12/19 06:04:10;;;;;;;39.50;16.25;;;5.10;99.90;;;;;;4995382;28;20034;-86
2020/12/19 06:06:38;;;;;;;32.08;15.50;;;5.20;99.90;;;;;;5012997;28;20399;-83
2020/12/19 06:09:05;;;;;;;33.58;15.20;;;5.20;99.90;;;;;;4995685;28;20026;-87
2020/12/19 06:11:44;;;;;;;33.92;15.60;;;5.20;99.90;;;;;;4995208;28;20030;-86
2020/12/19 06:14:14;;;;;;;29.10;15.75;;;5.20;99.90;;;;;;4995543;28;20079;-81
2020/12/19 06:16:45;;;;;;;31.95;14.82;;;5.20;99.90;;;;;;4995238;28;20037;-81
2020/12/19 06:19:20;;;;;;;30.70;14.45;;;5.30;99.90;;;;;;4995496;28;20509;-84
2020/12/19 06:21:54;;;;;;;33.60;14.05;;;5.30;99.90;;;;;;4995344;28;20034;-84
2020/12/19 06:24:38;;;;;;;28.10;13.68;;;5.40;99.90;;;;;;4995306;28;20489;-84
2020/12/19 06:27:10;;;;;;;34.13;15.65;;;5.40;99.90;;;;;;4994956;28;20060;-84
2020/12/19 06:29:37;;;;;;;36.05;16.33;;;5.40;99.90;;;;;;5012497;28;20018;-85
2020/12/19 06:32:04;;;;;;;34.15;17.40;;;5.40;99.90;;;;;;5012669;28;20484;-79
2020/12/19 06:34:30;;;;;;;37.17;18.17;;;5.40;99.90;;;;;;4994521;28;20050;-84
2020/12/19 06:36:56;;;;;;;36.78;16.02;;;5.30;99.90;;;;;;5012458;28;20421;-82
2020/12/19 06:39:22;;;;;;;33.83;16.05;;;5.30;99.90;;;;;;5012673;28;20394;-83
2020/12/19 06:41:48;;;;;;;32.70;15.02;;;5.30;99.90;;;;;;4994610;28;20022;-83
2020/12/19 06:44:33;;;;;;;28.92;15.85;;;5.40;99.90;;;;;;4994728;28;20389;-85
2020/12/19 06:47:01;;;;;;;26.35;13.98;;;5.30;99.90;;;;;;5005499;28;20030;-84
2020/12/19 06:49:35;;;;;;;24.90;13.07;;;5.20;99.90;;;;;;4994666;28;20484;-82
2020/12/19 06:52:05;;;;;;;26.10;12.63;;;4.90;99.90;;;;;;5011571;28;20057;-83
2020/12/19 06:54:41;;;;;;;23.52;12.30;;;5.00;99.90;;;;;;4994451;28;20036;-83
2020/12/19 06:57:25;;;;;;;25.27;11.73;;;5.00;99.90;;;;;;5012308;28;20028;-81
2020/12/19 06:59:51;;;;;;;22.45;11.75;;;5.10;99.90;;;;;;5011925;28;20030;-82
2020/12/19 07:02:21;;;;;;;26.73;12.52;;;5.20;99.90;;;;;;4994568;28;20068;-83
2020/12/19 07:04:48;;;;;;;29.63;13.20;;;5.20;99.90;;;;;;4994956;28;20072;-83
2020/12/19 07:07:26;;;;;;;25.30;13.13;;;5.20;99.90;;;;;;4994293;28;20567;-87
2020/12/19 07:09:59;;;;;;;24.92;12.35;;;5.20;99.90;;;;;;5012139;28;20044;-83
2020/12/19 07:12:29;;;;;;;27.17;12.60;;;5.20;99.90;;;;;;5012102;28;20377;-83
2020/12/19 07:14:55;;;;;;;26.60;12.80;;;5.20;99.90;;;;;;5011972;28;20022;-83
2020/12/19 07:17:22;;;;;;;19.48;11.45;;;5.20;99.90;;;;;;5006105;28;20033;-81
2020/12/19 07:19:59;;;;;;;25.60;13.23;;;5.30;99.90;;;;;;4994160;28;20041;-81
2020/12/19 07:22:26;;;;;;;19.85;11.82;;;5.40;99.90;;;;;;5012386;28;20081;-82
2020/12/19 07:24:53;;;;;;;22.35;11.77;;;5.20;99.90;;;;;;4994351;28;20393;-81
2020/12/19 07:27:21;;;;;;;20.27;11.10;;;5.20;99.90;;;;;;4993558;28;20025;-81
2020/12/19 07:29:47;;;;;;;25.38;11.68;;;5.20;99.90;;;;;;5011802;28;20057;-80
2020/12/19 07:32:13;;;;;;;19.75;11.30;;;5.20;99.90;;;;;;4994885;28;20057;-83
2020/12/19 07:34:39;;;;;;;25.13;11.63;;;5.10;99.90;;;;;;5018009;28;20073;-81
2020/12/19 07:37:06;;;;;;;20.50;12.13;;;5.00;99.90;;;;;;5018530;28;20064;-81
2020/12/19 07:39:32;;;;;;;19.38;11.68;;;5.10;99.90;;;;;;5000985;28;20034;-83
2020/12/19 07:42:03;;;;;;;25.48;12.48;;;4.90;99.90;;;;;;5000454;28;20076;-82
2020/12/19 07:44:29;;;;;;;;;;;5.00;99.90;;;;;;5001450;28;20448;-83
2020/12/19 07:46:59;;;;;;;22.23;11.73;;;5.00;99.90;;;;;;5018514;28;19993;-82
2020/12/19 07:49:34;;;;;;;19.58;11.52;;;5.00;99.90;;;;;;5018515;28;20470;-85
2020/12/19 07:52:12;;;;;;;20.08;10.93;;;5.00;99.90;;;;;;5000591;28;20037;-81
2020/12/19 07:54:39;;;;;;;19.83;11.57;;;5.00;99.90;;;;;;5000467;28;20037;-83
2020/12/19 07:57:06;;;;;;;19.98;10.82;;;4.90;99.90;;;;;;5018049;28;20028;-82
2020/12/19 07:59:35;;;;;;;16.10;10.57;;;5.00;99.90;;;;;;5000505;28;20390;-83
2020/12/19 08:02:03;;;;;;;16.52;10.52;;;5.00;99.90;;;;;;5000578;28;20458;-82
2020/12/19 08:04:31;;;;;;;17.90;10.35;;;5.00;99.90;;;;;;5018075;28;20030;-82
2020/12/19 08:06:57;;;;;;;18.40;11.07;;;5.00;99.90;;;;;;5018181;28;20469;-84
2020/12/19 08:09:26;;;;;;;17.42;10.20;;;5.10;99.90;;;;;;5000390;28;20029;-81
2020/12/19 08:11:53;;;;;;;17.38;9.98;;;5.00;99.90;;;;;;5018095;28;20033;-81
2020/12/19 08:14:21;;;;;;;23.17;10.95;;;5.10;99.90;;;;;;5000498;28;20026;-83
2020/12/19 08:16:48;;;;;;;20.55;10.98;;;5.10;99.90;;;;;;5018078;28;20025;-83
2020/12/19 08:19:38;;;;;;;17.70;11.10;;;5.00;99.90;;;;;;5002475;28;20434;-83
2020/12/19 08:22:06;;;;;;;22.58;13.00;;;4.90;99.90;;;;;;5008464;28;20041;-84
2020/12/19 08:25:20;;;;;;;17.45;9.95;;;5.00;99.90;;;;;;5000576;28;20030;-90
2020/12/19 08:27:47;;;;;;;21.27;11.18;;;4.90;99.90;;;;;;4998022;28;20034;-84
2020/12/19 08:30:20;;;;;;;18.00;10.65;;;5.00;99.90;;;;;;5016621;28;20434;-83
2020/12/19 08:33:07;;;;;;;21.23;12.18;;;5.00;99.90;;;;;;5017933;28;20026;-83
2020/12/19 08:35:40;;;;;;;23.55;12.70;;;5.10;99.90;;;;;;5017603;28;20050;-88
2020/12/19 08:38:10;;;;;;;21.38;11.70;;;5.20;99.90;;;;;;5017757;28;20437;-86
2020/12/19 08:40:48;;;;;;;22.13;11.93;;;5.10;99.90;;;;;;5000766;28;20022;-83
2020/12/19 08:43:16;;;;;;;22.33;11.45;;;5.00;99.90;;;;;;5000026;28;20029;-81
2020/12/19 08:45:51;;;;;;;24.05;12.18;;;5.00;99.90;;;;;;5013666;28;20017;-87
2020/12/19 08:48:21;;;;;;;24.58;13.57;;;5.10;99.90;;;;;;5014752;28;20029;-80
2020/12/19 08:50:48;;;;;;;28.45;12.75;;;5.20;99.90;;;;;;5013568;28;20026;-82
2020/12/19 08:53:24;;;;;;;23.60;13.68;;;5.30;99.90;;;;;;5014939;28;20049;-83
2020/12/19 08:55:52;;;;;;;21.73;11.95;;;5.20;99.90;;;;;;5014710;28;20446;-82
2020/12/19 08:58:29;;;;;;;24.75;13.35;;;5.30;99.90;;;;;;4997931;28;20477;-84
2020/12/19 09:01:08;;;;;;;29.92;15.43;;;5.40;99.90;;;;;;4993184;28;20680;-87
2020/12/19 09:03:34;;;;;;;27.95;14.98;;;5.40;99.90;;;;;;4995080;28;20039;-81
2020/12/19 09:06:03;;;;;;;25.95;14.55;;;5.40;99.90;;;;;;4995120;28;20022;-92
2020/12/19 09:08:41;;;;;;;24.95;13.13;;;5.30;99.90;;;;;;4993376;28;20034;-84
2020/12/19 09:11:08;;;;;;;23.58;12.98;;;5.20;99.90;;;;;;4995402;28;20087;-82
2020/12/19 09:13:36;;;;;;;27.48;13.48;;;5.30;99.90;;;;;;5000031;28;20054;-84
2020/12/19 09:16:09;;;;;;;24.13;13.23;;;5.30;99.90;;;;;;5014780;28;20477;-84
2020/12/19 09:18:39;;;;;;;26.67;13.45;;;5.40;99.90;;;;;;4996975;28;20054;-83
2020/12/19 09:21:13;;;;;;;28.70;14.25;;;5.50;99.90;;;;;;4997294;28;20175;-85
2020/12/19 09:23:39;;;;;;;29.58;14.95;;;5.60;99.90;;;;;;4996764;28;20371;-84
2020/12/19 09:26:06;;;;;;;24.88;14.63;;;5.50;99.90;;;;;;4996850;28;20119;-81
2020/12/19 09:28:32;;;;;;;27.50;14.82;;;5.50;99.90;;;;;;4996600;28;20087;-88
2020/12/19 09:30:58;;;;;;;26.80;14.45;;;5.50;99.90;;;;;;5014794;28;20109;-87
2020/12/19 09:33:24;;;;;;;24.08;14.63;;;5.60;99.90;;;;;;5014945;28;20382;-83
2020/12/19 09:35:51;;;;;;;28.70;15.07;;;5.50;99.90;;;;;;4996819;28;20401;-84
2020/12/19 09:38:20;;;;;;;57.67;28.13;;;5.60;99.90;;;;;;4992378;28;20046;-83
2020/12/19 09:40:46;;;;;;;38.67;19.80;;;6.50;99.90;;;;;;5007842;28;20026;-84
2020/12/19 09:43:12;;;;;;;52.40;29.63;;;6.60;99.90;;;;;;4995014;28;20076;-84
2020/12/19 09:45:38;;;;;;;58.15;29.20;;;7.40;99.90;;;;;;4993902;28;20022;-81
2020/12/19 09:48:05;;;;;;;37.22;22.13;;;7.60;99.90;;;;;;5016238;28;20538;-81
2020/12/19 09:50:31;;;;;;;48.33;25.65;;;6.80;99.90;;;;;;5012330;28;20515;-82
2020/12/19 09:52:57;;;;;;;82.53;38.28;;;6.90;99.90;;;;;;5006268;28;20596;-81
2020/12/19 09:55:24;;;;;;;48.35;26.05;;;7.40;99.90;;;;;;5011231;28;20021;-79
2020/12/19 09:57:50;;;;;;;36.05;19.00;;;7.00;99.90;;;;;;4996321;28;20440;-79
2020/12/19 10:00:16;;;;;;;34.92;19.35;;;6.70;99.90;;;;;;5014234;28;20116;-79
2020/12/19 10:02:46;;;;;;;28.52;16.90;;;6.30;99.90;;;;;;5017004;28;20026;-79
2020/12/19 10:05:12;;;;;;;33.57;16.97;;;6.20;99.90;;;;;;5001725;28;20041;-83
2020/12/19 10:07:38;;;;;;;32.30;16.83;;;6.10;99.90;;;;;;5013137;28;20619;-81
2020/12/19 10:10:05;;;;;;;29.98;16.70;;;5.90;99.90;;;;;;5011234;28;20040;-82
2020/12/19 10:12:31;;;;;;;33.22;16.52;;;6.00;99.90;;;;;;5012120;28;20417;-81
2020/12/19 10:14:57;;;;;;;31.10;16.52;;;6.00;99.90;;;;;;5011055;28;20039;-85
2020/12/19 10:17:23;;;;;;;32.22;16.95;;;5.90;99.90;;;;;;5009376;28;20084;-82
2020/12/19 10:19:49;;;;;;;29.55;16.02;;;5.80;99.90;;;;;;5011538;28;20034;-82
2020/12/19 10:22:14;;;;;;;32.50;16.50;;;5.80;99.90;;;;;;5012642;28;20034;-86
2020/12/19 10:24:41;;;;;;;30.42;15.80;;;6.00;99.90;;;;;;5013079;28;20022;-85
2020/12/19 10:27:08;;;;;;;28.75;15.68;;;6.00;99.90;;;;;;5017326;28;20029;-87
2020/12/19 10:29:34;;;;;;;27.10;15.32;;;6.10;99.90;;;;;;5008868;28;20037;-79
2020/12/19 10:32:12;;;;;;;31.80;16.77;;;6.10;99.90;;;;;;4995000;28;20037;-87
2020/12/19 10:34:39;;;;;;;25.45;13.75;;;6.20;99.90;;;;;;5011938;28;20481;-81
2020/12/19 10:37:05;;;;;;;22.15;13.98;;;6.10;99.90;;;;;;5029942;28;20037;-81
2020/12/19 10:39:31;;;;;;;26.80;12.77;;;6.00;99.90;;;;;;5012984;28;20034;-81
2020/12/19 10:41:57;;;;;;;21.73;12.07;;;6.10;99.90;;;;;;5010441;28;20037;-81
2020/12/19 10:44:24;;;;;;;35.63;18.48;;;6.10;99.90;;;;;;5012468;28;20405;-82
2020/12/19 10:46:50;;;;;;;30.20;18.13;;;6.80;99.90;;;;;;5012225;28;20029;-84
2020/12/19 10:49:15;;;;;;;85.10;43.10;;;7.30;99.90;;;;;;5011075;28;20030;-85
2020/12/19 10:51:42;;;;;;;35.35;17.80;;;7.40;99.90;;;;;;5012362;28;20036;-79
2020/12/19 10:54:07;;;;;;;22.73;13.30;;;6.80;99.90;;;;;;5011455;28;20438;-81
2020/12/19 10:56:33;;;;;;;18.42;11.25;;;6.60;99.90;;;;;;4988909;28;20042;-83
2020/12/19 10:58:59;;;;;;;27.80;16.52;;;6.40;99.90;;;;;;4993604;28;20038;-80
2020/12/19 11:01:25;;;;;;;53.03;26.95;;;6.60;99.90;;;;;;5010575;28;20040;-84
2020/12/19 11:03:50;;;;;;;85.80;45.78;;;7.10;99.90;;;;;;4993050;28;20033;-80
2020/12/19 11:06:24;;;;;;;28.98;17.83;;;7.20;99.90;;;;;;5011172;28;20543;-82
2020/12/19 11:08:50;;;;;;;19.45;12.80;;;6.60;99.90;;;;;;4992296;28;20037;-83
2020/12/19 11:11:19;;;;;;;19.92;12.70;;;6.40;99.90;;;;;;4993784;28;20032;-82
2020/12/19 11:13:45;;;;;;;23.98;14.95;;;6.40;99.90;;;;;;5010650;28;20378;-84
2020/12/19 11:16:25;;;;;;;25.38;14.10;;;6.50;99.90;;;;;;5010758;28;20030;-81
2020/12/19 11:18:52;;;;;;;22.38;12.85;;;6.50;99.90;;;;;;5010112;28;20034;-82
2020/12/19 11:21:18;;;;;;;24.38;13.25;;;6.40;99.90;;;;;;5010795;28;20045;-80
2020/12/19 11:23:44;;;;;;;23.42;13.57;;;6.40;99.90;;;;;;5011141;28;20145;-81
2020/12/19 11:26:09;;;;;;;23.73;13.68;;;6.50;99.90;;;;;;4993855;28;20061;-82
2020/12/19 11:28:37;;;;;;;23.52;14.40;;;6.50;99.90;;;;;;5010128;28;20111;-81
2020/12/19 11:31:03;;;;;;;26.08;14.35;;;6.40;99.90;;;;;;5011267;28;20390;-83
2020/12/19 11:33:29;;;;;;;23.42;13.60;;;6.40;99.90;;;;;;4993198;28;20477;-81
2020/12/19 11:35:58;;;;;;;24.88;13.85;;;6.30;99.90;;;;;;4993444;28;20041;-80
2020/12/19 11:38:24;;;;;;;22.88;12.90;;;6.30;99.90;;;;;;4986791;28;20393;-79
2020/12/19 11:40:49;;;;;;;23.20;13.85;;;5.80;99.90;;;;;;5001775;28;20516;-80
2020/12/19 11:43:15;;;;;;;24.08;14.38;;;5.90;99.90;;;;;;4990207;28;20030;-81
2020/12/19 11:45:41;;;;;;;25.27;13.80;;;6.20;99.90;;;;;;4990521;28;20057;-82
2020/12/19 11:48:07;;;;;;;24.30;14.32;;;6.30;99.90;;;;;;4992733;28;20053;-81
2020/12/19 11:50:33;;;;;;;24.90;13.80;;;6.30;99.90;;;;;;4989861;28;20108;-80
2020/12/19 11:52:58;;;;;;;23.85;14.15;;;6.40;99.90;;;;;;4989301;28;20026;-80
2020/12/19 11:55:25;;;;;;;24.52;15.55;;;6.40;99.90;;;;;;4992887;28;20026;-80
2020/12/19 11:57:51;;;;;;;29.80;16.67;;;6.40;99.90;;;;;;5010548;28;20026;-81
2020/12/19 12:00:17;;;;;;;30.45;15.80;;;6.40;99.90;;;;;;4990852;28;20077;-82
2020/12/19 12:02:43;;;;;;;29.10;15.15;;;6.10;99.90;;;;;;4992677;28;20030;-81
2020/12/19 12:05:14;;;;;;;32.30;15.90;;;6.00;99.90;;;;;;4990923;28;20122;-80
2020/12/19 12:07:40;;;;;;;30.13;15.88;;;6.10;99.90;;;;;;5008561;28;20033;-80
2020/12/19 12:10:05;;;;;;;30.85;17.05;;;6.00;99.90;;;;;;4991165;28;20026;-80
2020/12/19 12:12:31;;;;;;;42.65;21.55;;;5.50;99.90;;;;;;4992831;28;20037;-81
2020/12/19 12:14:57;;;;;;;42.22;22.00;;;5.30;99.90;;;;;;4992256;28;20081;-82
2020/12/19 12:17:23;;;;;;;38.97;20.50;;;5.40;99.90;;;;;;5000498;28;20033;-85
2020/12/19 12:19:49;;;;;;;42.42;21.85;;;5.20;99.90;;;;;;4989492;28;20033;-86
2020/12/19 12:22:15;;;;;;;44.60;21.67;;;5.50;99.90;;;;;;5011318;28;20022;-80
2020/12/19 12:24:40;;;;;;;39.70;21.27;;;5.70;99.90;;;;;;5012738;28;20022;-80
2020/12/19 12:27:06;;;;;;;43.10;22.98;;;5.60;99.90;;;;;;4995305;28;20018;-79
2020/12/19 12:29:32;;;;;;;44.47;21.65;;;5.70;99.90;;;;;;5004792;28;20053;-81
2020/12/19 12:31:58;;;;;;;43.00;22.48;;;5.40;99.90;;;;;;4995520;28;20398;-84
2020/12/19 12:34:27;;;;;;;45.25;23.90;;;5.00;99.90;;;;;;4994993;28;20106;-82
2020/12/19 12:36:53;;;;;;;39.53;22.38;;;5.40;99.90;;;;;;5012202;28;20030;-83
2020/12/19 12:39:19;;;;;;;53.55;25.23;;;5.30;99.90;;;;;;4992751;28;20092;-82
2020/12/19 12:41:46;;;;;;;51.30;24.70;;;5.40;99.90;;;;;;5010685;28;20029;-82